Time;durP1;ratioP1;P1;durP2;ratioP2;P2;SDS_P1;SDS_P2;PMS_P1;PMS_P2;Temp;Humidity;BMP_temperature;BMP_pressure;BME280_temperature;BME280_humidity;BME280_pressure;Samples;Min_cycle;Max_cycle;Signal;HPM_P1;HPM_P2
2024/01/24 00:02:07;;;;;;;6.85;2.75;;;;;;;11.23;100.00;101035.03;5068114;28;20123;-57
2024/01/24 00:04:35;;;;;;;8.63;2.53;;;;;;;11.30;100.00;101035.50;5068137;28;20048;-56
2024/01/24 00:07:03;;;;;;;10.10;2.75;;;;;;;11.35;100.00;101043.13;5069288;28;20063;-57
2024/01/24 00:09:33;;;;;;;10.20;2.97;;;;;;;11.39;100.00;101044.59;5072049;28;20051;-57
2024/01/24 00:12:02;;;;;;;6.13;1.95;;;;;;;11.40;100.00;101038.38;5072016;28;20052;-57
2024/01/24 00:14:30;;;;;;;6.32;2.60;;;;;;;11.42;100.00;101031.22;5071876;28;20408;-56
2024/01/24 00:16:58;;;;;;;7.80;2.28;;;;;;;11.40;100.00;101014.66;5071827;28;20048;-57
2024/01/24 00:19:26;;;;;;;5.85;2.10;;;;;;;11.42;100.00;101039.13;5068234;28;20630;-57
2024/01/24 00:21:55;;;;;;;5.82;2.45;;;;;;;11.45;100.00;101023.13;5068229;28;20064;-58
2024/01/24 00:24:23;;;;;;;5.93;1.98;;;;;;;11.49;100.00;101017.56;5072064;28;20037;-57
2024/01/24 00:26:52;;;;;;;6.57;1.95;;;;;;;11.47;100.00;101014.16;5071952;28;20123;-57
2024/01/24 00:29:20;;;;;;;6.43;2.17;;;;;;;11.50;100.00;101018.41;5067530;28;20053;-57
2024/01/24 00:31:48;;;;;;;5.00;1.70;;;;;;;11.55;100.00;101010.16;5068257;28;20048;-57
2024/01/24 00:34:17;;;;;;;4.88;2.38;;;;;;;11.56;100.00;101010.09;5068029;28;20492;-58
2024/01/24 00:36:45;;;;;;;2.05;1.60;;;;;;;11.59;100.00;101001.13;5069965;28;20040;-57
2024/01/24 00:39:14;;;;;;;4.55;1.70;;;;;;;11.63;100.00;100994.69;5071667;28;20052;-57
2024/01/24 00:41:42;;;;;;;4.32;1.75;;;;;;;11.64;100.00;100991.13;5069598;28;20048;-58
2024/01/24 00:44:15;;;;;;;6.05;1.77;;;;;;;11.66;100.00;101011.16;5068207;28;20039;-57
2024/01/24 00:46:43;;;;;;;3.45;1.17;;;;;;;11.71;100.00;101017.91;5071676;28;20057;-57
2024/01/24 00:49:13;;;;;;;3.67;1.35;;;;;;;11.71;100.00;101005.59;5069772;28;20071;-57
2024/01/24 00:51:41;;;;;;;4.28;1.20;;;;;;;11.72;100.00;101001.16;5066810;28;20052;-60
2024/01/24 00:54:10;;;;;;;5.18;1.25;;;;;;;11.74;100.00;101009.78;5067921;28;20048;-58
2024/01/24 00:56:41;;;;;;;5.82;1.30;;;;;;;11.75;100.00;100995.66;5066491;28;20055;-48
2024/01/24 00:59:09;;;;;;;2.90;1.00;;;;;;;11.76;100.00;101006.09;5071165;28;20547;-51
2024/01/24 01:01:41;;;;;;;3.65;1.10;;;;;;;11.72;100.00;101002.00;5069816;28;20491;-52
2024/01/24 01:04:09;;;;;;;3.97;1.20;;;;;;;11.74;100.00;101013.28;5067880;28;20040;-52
2024/01/24 01:06:38;;;;;;;1.92;0.90;;;;;;;11.73;100.00;101013.41;5067644;28;20043;-47
2024/01/24 01:09:08;;;;;;;4.97;1.00;;;;;;;11.76;100.00;100998.19;5070219;28;20052;-49
2024/01/24 01:11:36;;;;;;;3.70;0.80;;;;;;;11.73;100.00;101021.28;5074935;28;20060;-45
2024/01/24 01:14:04;;;;;;;2.42;0.82;;;;;;;11.72;100.00;101024.88;5072171;28;20053;-47
2024/01/24 01:16:32;;;;;;;2.20;0.80;;;;;;;11.69;100.00;101023.28;5071404;28;20093;-48
2024/01/24 01:19:01;;;;;;;1.63;0.82;;;;;;;11.69;100.00;101025.09;5070968;28;20076;-48
2024/01/24 01:21:30;;;;;;;3.13;1.00;;;;;;;11.69;100.00;101025.91;5071944;28;20076;-47
2024/01/24 01:23:58;;;;;;;2.00;0.85;;;;;;;11.67;100.00;101015.47;5071210;28;20544;-45
2024/01/24 01:26:26;;;;;;;1.95;0.77;;;;;;;11.61;100.00;101009.78;5071487;28;20053;-47
2024/01/24 01:28:57;;;;;;;2.25;0.88;;;;;;;11.57;100.00;101016.19;5072557;28;20051;-48
2024/01/24 01:31:25;;;;;;;1.85;0.93;;;;;;;11.49;100.00;101017.56;5073604;28;20144;-48
2024/01/24 01:33:53;;;;;;;3.72;1.10;;;;;;;11.46;100.00;101019.53;5074804;28;20093;-47
2024/01/24 01:36:23;;;;;;;4.32;1.23;;;;;;;11.39;100.00;101013.00;5074482;28;20483;-52
2024/01/24 01:38:51;;;;;;;2.55;0.95;;;;;;;11.37;100.00;101025.41;5074626;28;20125;-48
2024/01/24 01:41:19;;;;;;;2.90;1.10;;;;;;;11.32;100.00;101029.19;5072662;28;20047;-47
2024/01/24 01:43:47;;;;;;;1.65;1.10;;;;;;;11.26;100.00;101019.06;5070775;28;20083;-47
2024/01/24 01:46:18;;;;;;;2.30;1.10;;;;;;;11.24;100.00;101031.47;5073461;28;20068;-49
2024/01/24 01:48:49;;;;;;;3.08;1.00;;;;;;;11.20;100.00;101024.72;5074654;28;20400;-48
2024/01/24 01:51:18;;;;;;;1.52;1.20;;;;;;;11.14;100.00;101009.34;5074416;28;20086;-47
2024/01/24 01:53:49;;;;;;;1.95;1.40;;;;;;;11.12;100.00;101003.31;5072882;28;20051;-47
2024/01/24 01:56:19;;;;;;;3.25;1.40;;;;;;;11.09;100.00;100999.09;5070652;28;20052;-48
2024/01/24 01:58:49;;;;;;;3.03;1.90;;;;;;;11.10;100.00;101000.78;5073316;28;20052;-47
2024/01/24 02:01:18;;;;;;;3.97;1.45;;;;;;;11.08;100.00;101005.28;5106780;28;20106;-49
2024/01/24 02:03:47;;;;;;;2.75;1.60;;;;;;;11.08;100.00;101015.00;5074103;28;20052;-46
2024/01/24 02:06:15;;;;;;;2.22;1.35;;;;;;;11.07;100.00;101000.13;5074047;28;20041;-48
2024/01/24 02:08:44;;;;;;;2.65;1.38;;;;;;;11.07;100.00;100998.38;5072676;28;20067;-48
2024/01/24 02:11:14;;;;;;;3.38;1.60;;;;;;;11.02;100.00;100971.50;5073927;28;20136;-48
2024/01/24 02:13:42;;;;;;;3.60;1.48;;;;;;;11.01;100.00;100984.75;5070547;28;20044;-48
2024/01/24 02:16:13;;;;;;;3.53;1.75;;;;;;;11.01;100.00;100988.22;5070478;28;20044;-47
2024/01/24 02:18:45;;;;;;;3.90;1.70;;;;;;;10.99;100.00;100977.81;5071579;28;20147;-46
2024/01/24 02:21:14;;;;;;;2.80;1.48;;;;;;;11.00;100.00;100981.25;5073939;28;20048;-48
2024/01/24 02:23:43;;;;;;;3.85;1.65;;;;;;;10.99;100.00;100983.06;5072195;28;20056;-47
2024/01/24 02:26:13;;;;;;;4.07;1.80;;;;;;;11.00;100.00;100983.91;5073752;28;20039;-49
2024/01/24 02:28:41;;;;;;;3.55;1.80;;;;;;;11.02;100.00;100983.81;5073001;28;20041;-49
2024/01/24 02:31:09;;;;;;;1.98;1.60;;;;;;;10.99;100.00;100969.91;5069828;28;20044;-49
2024/01/24 02:33:37;;;;;;;2.50;1.40;;;;;;;10.99;100.00;100976.97;5071138;28;20052;-51
2024/01/24 02:36:06;;;;;;;3.00;1.70;;;;;;;10.98;100.00;100973.47;5072648;28;20094;-49
2024/01/24 02:38:34;;;;;;;1.92;1.48;;;;;;;10.95;100.00;100981.56;5072876;28;20122;-47
2024/01/24 02:41:02;;;;;;;1.95;1.65;;;;;;;10.94;100.00;100986.94;5072686;28;20226;-48
2024/01/24 02:43:32;;;;;;;3.08;1.60;;;;;;;10.95;100.00;100984.22;5070075;28;20444;-50
2024/01/24 02:46:00;;;;;;;2.35;1.58;;;;;;;10.96;100.00;100988.53;5071073;28;20079;-47
2024/01/24 02:48:28;;;;;;;1.90;1.33;;;;;;;10.97;100.00;100986.72;5073250;28;20037;-52
2024/01/24 02:50:56;;;;;;;2.08;1.40;;;;;;;11.00;100.00;100994.41;5070703;28;20048;-51
2024/01/24 02:53:24;;;;;;;1.75;1.40;;;;;;;10.99;100.00;100992.75;5069611;28;20044;-48
2024/01/24 02:55:53;;;;;;;1.83;1.52;;;;;;;10.97;100.00;100986.72;5072387;28;20037;-48
2024/01/24 02:58:21;;;;;;;1.60;1.38;;;;;;;10.98;100.00;100989.25;5069218;28;20032;-58
2024/01/24 03:00:50;;;;;;;2.53;1.60;;;;;;;10.97;100.00;100977.03;5068623;28;20040;-57
2024/01/24 03:03:18;;;;;;;2.00;1.50;;;;;;;10.98;100.00;100989.25;5068912;28;20520;-48
2024/01/24 03:05:47;;;;;;;3.03;1.70;;;;;;;11.03;100.00;100998.66;5068919;28;20446;-51
2024/01/24 03:08:15;;;;;;;3.80;1.70;;;;;;;11.04;100.00;101008.25;5071089;28;20048;-49
2024/01/24 03:10:43;;;;;;;3.20;1.65;;;;;;;11.06;100.00;101003.72;5072599;28;20048;-50
2024/01/24 03:13:14;;;;;;;3.22;1.48;;;;;;;11.03;100.00;101009.16;5072953;28;20376;-57
2024/01/24 03:15:42;;;;;;;3.90;1.52;;;;;;;11.03;100.00;100998.66;5072655;28;20114;-57
2024/01/24 03:18:12;;;;;;;3.05;1.30;;;;;;;11.08;100.00;100996.56;5069893;28;20805;-57
2024/01/24 03:20:40;;;;;;;2.63;1.25;;;;;;;11.07;100.00;101013.28;5068203;28;20464;-58
2024/01/24 03:23:08;;;;;;;4.55;1.45;;;;;;;11.07;100.00;101031.72;5071542;28;20572;-57
2024/01/24 03:25:36;;;;;;;3.70;1.33;;;;;;;11.07;100.00;101039.63;5069299;28;20547;-57
2024/01/24 03:28:05;;;;;;;4.05;1.50;;;;;;;11.03;100.00;101033.72;5069624;28;20134;-58
2024/01/24 03:30:33;;;;;;;5.95;1.88;;;;;;;11.02;100.00;101031.19;5071683;28;20040;-57
2024/01/24 03:33:04;;;;;;;5.22;1.52;;;;;;;11.05;100.00;101036.25;5068482;28;20045;-58
2024/01/24 03:35:34;;;;;;;9.52;1.60;;;;;;;11.02;100.00;101039.09;5067634;28;20059;-58
2024/01/24 03:38:02;;;;;;;4.53;1.23;;;;;;;11.03;100.00;101035.50;5070906;28;20494;-49
2024/01/24 03:40:30;;;;;;;3.88;1.17;;;;;;;11.03;100.00;101067.06;5067288;28;20079;-47
2024/01/24 03:43:00;;;;;;;5.22;1.50;;;;;;;11.05;100.00;101065.19;5071414;28;20045;-51
2024/01/24 03:45:28;;;;;;;6.07;1.40;;;;;;;11.07;100.00;101072.06;5072185;28;20131;-52
2024/01/24 03:47:57;;;;;;;4.82;1.38;;;;;;;11.11;100.00;101072.69;5068550;28;20044;-51
2024/01/24 03:50:25;;;;;;;6.10;1.90;;;;;;;11.12;100.00;101087.56;5067889;28;20125;-50
2024/01/24 03:52:56;;;;;;;6.78;1.30;;;;;;;11.07;100.00;101089.63;5068965;28;20040;-50
2024/01/24 03:55:25;;;;;;;8.63;1.40;;;;;;;11.06;100.00;101061.63;5069369;28;20078;-51
2024/01/24 03:57:53;;;;;;;6.07;1.38;;;;;;;11.06;100.00;101064.28;5071816;28;20040;-50
2024/01/24 04:00:21;;;;;;;5.93;1.23;;;;;;;11.04;100.00;101063.50;5072012;28;20113;-46
2024/01/24 04:02:49;;;;;;;4.50;1.30;;;;;;;11.02;100.00;101060.16;5070965;28;20556;-48
2024/01/24 04:05:18;;;;;;;6.20;1.48;;;;;;;10.96;100.00;101056.94;5067862;28;20040;-48
2024/01/24 04:07:46;;;;;;;10.02;1.70;;;;;;;10.95;100.00;101063.16;5070933;28;20040;-46
2024/01/24 04:10:16;;;;;;;6.10;1.73;;;;;;;10.95;100.00;101060.53;5072065;28;20044;-48
2024/01/24 04:12:44;;;;;;;7.60;1.60;;;;;;;10.93;100.00;101067.66;5072059;28;20309;-48
2024/01/24 04:15:12;;;;;;;11.10;1.38;;;;;;;10.93;100.00;101083.44;5072194;28;20049;-48
2024/01/24 04:17:41;;;;;;;10.05;2.03;;;;;;;10.93;100.00;101077.34;5070359;28;20090;-48
2024/01/24 04:20:10;;;;;;;12.95;1.92;;;;;;;10.92;100.00;101065.97;5071971;28;20137;-46
2024/01/24 04:22:38;;;;;;;10.48;2.05;;;;;;;10.91;100.00;101084.50;5071935;28;20052;-51
2024/01/24 04:25:07;;;;;;;12.32;2.25;;;;;;;10.88;100.00;101089.94;5068925;28;20177;-49
2024/01/24 04:27:37;;;;;;;12.95;2.45;;;;;;;10.80;100.00;101101.78;5067125;28;20067;-48
2024/01/24 04:30:07;;;;;;;11.98;2.28;;;;;;;10.77;100.00;101095.84;5069111;28;20155;-47
2024/01/24 04:32:35;;;;;;;13.63;2.00;;;;;;;10.72;100.00;101090.06;5069585;28;20102;-48
2024/01/24 04:35:04;;;;;;;14.48;2.47;;;;;;;10.69;100.00;101067.41;5068175;28;20040;-49
2024/01/24 04:37:32;;;;;;;14.30;2.65;;;;;;;10.69;100.00;101085.84;5071136;28;20041;-48
2024/01/24 04:40:00;;;;;;;15.52;2.88;;;;;;;10.69;100.00;101087.59;5071713;28;20044;-49
2024/01/24 04:42:28;;;;;;;11.95;2.60;;;;;;;10.65;100.00;101097.47;5073316;28;20109;-48
2024/01/24 04:44:58;;;;;;;17.60;2.75;;;;;;;10.59;100.00;101098.72;5075751;28;20519;-48
2024/01/24 04:47:26;;;;;;;17.95;3.10;;;;;;;10.56;100.00;101103.31;5074425;28;20044;-47
2024/01/24 04:49:54;;;;;;;17.58;2.63;;;;;;;10.56;100.00;101104.13;5075475;28;20064;-57
2024/01/24 04:52:23;;;;;;;15.82;3.45;;;;;;;10.51;100.00;101093.03;5072361;28;20514;-57
2024/01/24 04:54:52;;;;;;;18.33;3.78;;;;;;;10.55;100.00;101128.75;5072528;28;20457;-56
2024/01/24 04:57:20;;;;;;;23.77;4.43;;;;;;;10.54;100.00;101120.94;5075498;28;20050;-58
2024/01/24 04:59:48;;;;;;;17.23;4.25;;;;;;;10.49;100.00;101148.38;5072946;28;20102;-57
2024/01/24 05:02:24;;;;;;;20.75;3.33;;;;;;;10.52;100.00;101176.25;5071344;28;20631;-57
2024/01/24 05:04:53;;;;;;;19.48;3.63;;;;;;;10.47;100.00;101170.44;5071363;28;20044;-57
2024/01/24 05:07:23;;;;;;;21.58;3.67;;;;;;;10.46;100.00;101174.03;5072058;28;20419;-56
2024/01/24 05:09:54;;;;;;;23.30;3.10;;;;;;;10.46;100.00;101168.75;5071651;28;20051;-57
2024/01/24 05:12:26;;;;;;;20.17;3.42;;;;;;;10.47;100.00;101189.69;5071117;28;20054;-57
2024/01/24 05:14:54;;;;;;;16.38;3.42;;;;;;;10.48;100.00;101185.28;5070652;28;20155;-56
2024/01/24 05:17:24;;;;;;;19.67;3.70;;;;;;;10.40;100.00;101179.63;5070605;28;20041;-57
2024/01/24 05:19:52;;;;;;;20.00;4.13;;;;;;;10.44;100.00;101194.28;5071931;28;20080;-57
2024/01/24 05:22:20;;;;;;;22.83;4.47;;;;;;;10.45;100.00;101206.50;5074857;28;20067;-57
2024/01/24 05:24:48;;;;;;;23.48;3.67;;;;;;;10.46;100.00;101213.47;5075037;28;20040;-57
2024/01/24 05:27:17;;;;;;;22.65;3.97;;;;;;;10.40;100.00;101209.41;5074825;28;20119;-57
2024/01/24 05:29:47;;;;;;;23.75;4.28;;;;;;;10.39;100.00;101201.59;5071663;28;20063;-56
2024/01/24 05:32:15;;;;;;;22.63;3.72;;;;;;;10.37;100.00;101204.31;5070684;28;20044;-57
2024/01/24 05:34:45;;;;;;;22.33;4.28;;;;;;;10.36;100.00;101191.25;5073023;28;20513;-56
2024/01/24 05:37:13;;;;;;;23.70;4.38;;;;;;;10.36;100.00;101207.91;5074552;28;20036;-57
2024/01/24 05:39:42;;;;;;;18.65;3.60;;;;;;;10.32;100.00;101208.94;5074492;28;20045;-57
2024/01/24 05:42:11;;;;;;;25.27;5.57;;;;;;;10.30;100.00;101202.94;5074771;28;20075;-56
2024/01/24 05:44:42;;;;;;;23.20;4.50;;;;;;;10.27;100.00;101200.50;5074547;28;20051;-57
2024/01/24 05:47:10;;;;;;;29.33;4.82;;;;;;;10.25;100.00;101221.63;5074061;28;20041;-57
2024/01/24 05:49:41;;;;;;;20.58;4.30;;;;;;;10.23;100.00;101215.59;5071354;28;20052;-56
2024/01/24 05:52:13;;;;;;;26.45;5.53;;;;;;;10.20;100.00;101252.59;5070368;28;20052;-56
2024/01/24 05:54:41;;;;;;;24.63;4.78;;;;;;;10.21;100.00;101251.66;5068604;28;20101;-56
2024/01/24 05:57:09;;;;;;;26.45;5.22;;;;;;;10.19;100.00;101245.63;5070429;28;20044;-58
2024/01/24 05:59:37;;;;;;;25.60;4.55;;;;;;;10.16;100.00;101264.22;5071465;28;20064;-57
2024/01/24 06:02:06;;;;;;;19.55;4.20;;;;;;;10.17;100.00;101265.91;5074155;28;20117;-56
2024/01/24 06:04:34;;;;;;;26.52;4.78;;;;;;;10.16;100.00;101256.31;5073822;28;20119;-57
2024/01/24 06:07:02;;;;;;;28.67;5.15;;;;;;;10.15;100.00;101268.59;5074080;28;20041;-56
2024/01/24 06:09:32;;;;;;;27.23;4.75;;;;;;;10.15;100.00;101284.38;5069368;28;20059;-57
2024/01/24 06:12:01;;;;;;;25.13;5.65;;;;;;;10.15;100.00;101291.41;5071027;28;20063;-57
2024/01/24 06:14:29;;;;;;;32.30;5.88;;;;;;;10.16;100.00;101290.50;5073992;28;20399;-57
2024/01/24 06:16:57;;;;;;;29.15;5.15;;;;;;;10.13;100.00;101307.28;5073734;28;20545;-57
2024/01/24 06:19:25;;;;;;;32.25;5.15;;;;;;;10.10;100.00;101299.56;5070489;28;20056;-57
2024/01/24 06:21:53;;;;;;;27.02;5.38;;;;;;;10.04;100.00;101301.69;5070589;28;20122;-57
2024/01/24 06:24:24;;;;;;;26.48;4.80;;;;;;;10.00;100.00;101305.44;5070673;28;20068;-56
2024/01/24 06:26:57;;;;;;;24.88;5.10;;;;;;;9.97;100.00;101311.69;5070864;28;20514;-57
2024/01/24 06:29:25;;;;;;;32.03;5.22;;;;;;;9.95;100.00;101322.28;5071317;28;20053;-55
2024/01/24 06:32:13;;;;;;;28.52;5.20;;;;;;;9.92;100.00;101340.81;5069200;28;20102;-56
2024/01/24 06:34:42;;;;;;;32.78;5.32;;;;;;;9.85;100.00;101315.84;5070784;28;20047;-56
2024/01/24 06:37:10;;;;;;;28.70;5.22;;;;;;;9.85;100.00;101328.13;5072187;28;20068;-56
2024/01/24 06:39:39;;;;;;;29.48;5.88;;;;;;;9.85;100.00;101334.22;5070262;28;20127;-58
2024/01/24 06:42:11;;;;;;;34.20;5.82;;;;;;;9.81;100.00;101330.91;5072449;28;20116;-58
2024/01/24 06:44:39;;;;;;;27.42;5.78;;;;;;;9.76;100.00;101326.84;5073320;28;20090;-56
2024/01/24 06:47:09;;;;;;;28.23;4.97;;;;;;;9.67;100.00;101338.69;5073237;28;20041;-56
2024/01/24 06:49:37;;;;;;;31.88;5.65;;;;;;;9.63;100.00;101348.50;5073186;28;20048;-57
2024/01/24 06:52:06;;;;;;;31.02;5.88;;;;;;;9.61;100.00;101349.50;5072376;28;20068;-57
2024/01/24 06:54:35;;;;;;;26.13;5.55;;;;;;;9.58;100.00;101379.41;5070323;28;20051;-56
2024/01/24 06:57:04;;;;;;;36.83;6.65;;;;;;;9.51;100.00;101391.16;5069116;28;20045;-57
2024/01/24 06:59:33;;;;;;;31.80;5.88;;;;;;;9.49;100.00;101393.03;5072225;28;20048;-49
2024/01/24 07:02:05;;;;;;;30.05;5.70;;;;;;;9.42;100.00;101392.50;5071977;28;20045;-50
2024/01/24 07:04:33;;;;;;;29.83;6.65;;;;;;;9.40;100.00;101406.63;5072098;28;20498;-47
2024/01/24 07:07:02;;;;;;;34.05;5.88;;;;;;;9.34;100.00;101396.44;5070422;28;20044;-49
2024/01/24 07:09:30;;;;;;;26.90;5.65;;;;;;;9.28;100.00;101408.97;5069348;28;20045;-47
2024/01/24 07:12:02;;;;;;;32.45;5.20;;;;;;;9.23;100.00;101402.22;5072584;28;20092;-51
2024/01/24 07:14:30;;;;;;;27.55;5.32;;;;;;;9.18;100.00;101393.75;5072082;28;20056;-47
2024/01/24 07:17:00;;;;;;;31.92;6.50;;;;;;;9.12;100.00;101393.13;5072682;28;20136;-50
2024/01/24 07:19:28;;;;;;;36.08;5.88;;;;;;;9.11;100.00;101398.47;5071795;28;20078;-48
2024/01/24 07:21:56;;;;;;;33.60;6.13;;;;;;;9.03;100.00;101411.13;5072557;28;20068;-49
2024/01/24 07:24:27;;;;;;;37.40;6.32;;;;;;;8.98;100.00;101416.56;5071280;28;20080;-51
2024/01/24 07:26:56;;;;;;;32.05;5.95;;;;;;;8.94;100.00;101431.63;5072460;28;20055;-50
2024/01/24 07:29:24;;;;;;;35.00;5.78;;;;;;;8.88;100.00;101424.06;5072501;28;20427;-51
2024/01/24 07:31:52;;;;;;;36.78;5.97;;;;;;;8.85;100.00;101411.09;5072389;28;20040;-49
2024/01/24 07:34:24;;;;;;;36.75;6.03;;;;;;;8.84;100.00;101416.41;5072056;28;20049;-47
2024/01/24 07:36:52;;;;;;;41.25;6.78;;;;;;;8.78;100.00;101426.28;5071831;28;20083;-47
2024/01/24 07:39:21;;;;;;;33.50;5.45;;;;;;;8.75;100.00;101449.16;5071048;28;20048;-45
2024/01/24 07:41:52;;;;;;;30.65;6.03;;;;;;;8.71;100.00;101460.72;5068991;28;20155;-46
2024/01/24 07:44:20;;;;;;;32.55;6.15;;;;;;;8.69;100.00;101473.91;5070809;28;20051;-45
2024/01/24 07:46:48;;;;;;;31.08;6.03;;;;;;;8.70;100.00;101466.88;5072472;28;20052;-49
2024/01/24 07:49:17;;;;;;;36.83;6.25;;;;;;;8.65;100.00;101461.03;5071697;28;20047;-46
2024/01/24 07:51:47;;;;;;;45.33;6.63;;;;;;;8.62;100.00;101447.13;5069238;28;20076;-46
2024/01/24 07:54:18;;;;;;;37.85;5.97;;;;;;;8.58;100.00;101449.97;5070173;28;20044;-47
2024/01/24 07:56:46;;;;;;;35.47;5.75;;;;;;;8.59;100.00;101478.75;5070626;28;20049;-47
2024/01/24 07:59:16;;;;;;;33.65;6.13;;;;;;;8.57;100.00;101490.22;5068309;28;20055;-46
2024/01/24 08:01:46;;;;;;;31.75;6.68;;;;;;;8.59;100.00;101499.72;5067474;28;20377;-48
2024/01/24 08:04:16;;;;;;;37.10;6.32;;;;;;;8.53;100.00;101499.16;5068462;28;20045;-48
2024/01/24 08:06:47;;;;;;;33.58;7.28;;;;;;;8.49;100.00;101495.81;5071532;28;20075;-47
2024/01/24 08:09:17;;;;;;;44.22;7.35;;;;;;;8.49;100.00;101495.81;5071472;28;20044;-47
2024/01/24 08:11:46;;;;;;;29.40;6.32;;;;;;;8.48;100.00;101499.38;5071697;28;20037;-46
2024/01/24 08:14:14;;;;;;;39.40;6.10;;;;;;;8.46;100.00;101512.53;5071892;28;20045;-47
2024/01/24 08:17:02;;;;;;;37.78;6.78;;;;;;;8.51;100.00;101509.72;5071833;28;20052;-46
2024/01/24 08:19:30;;;;;;;31.33;5.22;;;;;;;8.51;100.00;101512.34;5075859;28;20048;-46
2024/01/24 08:22:00;;;;;;;32.72;6.55;;;;;;;8.48;100.00;101517.72;5074935;28;20139;-47
2024/01/24 08:24:31;;;;;;;33.17;6.22;;;;;;;8.50;100.00;101513.25;5074198;28;20053;-47
2024/01/24 08:26:59;;;;;;;34.63;6.53;;;;;;;8.50;100.00;101497.53;5076065;28;20079;-47
2024/01/24 08:29:27;;;;;;;31.40;6.30;;;;;;;8.53;100.00;101544.56;5074147;28;20048;-45
2024/01/24 08:32:05;;;;;;;36.20;6.15;;;;;;;8.56;100.00;101552.31;5075998;28;20106;-46
2024/01/24 08:34:35;;;;;;;35.13;6.32;;;;;;;8.58;100.00;101539.13;5074565;28;20094;-46
2024/01/24 08:37:08;;;;;;;39.28;6.68;;;;;;;8.61;100.00;101529.31;5075771;28;20052;-47
2024/01/24 08:39:40;;;;;;;27.15;5.22;;;;;;;8.61;100.00;101531.13;5075645;28;20068;-46
2024/01/24 08:42:08;;;;;;;31.60;5.90;;;;;;;8.60;100.00;101535.50;5074286;28;20502;-46
2024/01/24 08:44:39;;;;;;;38.40;6.45;;;;;;;8.65;100.00;101563.31;5071472;28;20636;-45
2024/01/24 08:47:10;;;;;;;33.72;5.75;;;;;;;8.67;100.00;101564.06;5071978;28;20633;-47
2024/01/24 08:49:38;;;;;;;35.05;6.18;;;;;;;8.71;100.00;101581.34;5071717;28;20532;-47
2024/01/24 08:52:08;;;;;;;31.42;6.13;;;;;;;8.75;100.00;101588.16;5072494;28;20403;-47
2024/01/24 08:54:36;;;;;;;30.38;5.38;;;;;;;8.80;100.00;101589.66;5072631;28;20518;-47
2024/01/24 08:57:06;;;;;;;30.65;5.47;;;;;;;8.80;100.00;101591.44;5074761;28;20059;-48
2024/01/24 08:59:34;;;;;;;32.65;5.78;;;;;;;8.82;100.00;101583.50;5075213;28;20198;-50
2024/01/24 09:02:04;;;;;;;33.42;5.70;;;;;;;8.87;100.00;101573.66;5075259;28;20052;-50
2024/01/24 09:04:33;;;;;;;31.60;6.05;;;;;;;8.91;100.00;101583.06;5074729;28;20471;-46
2024/01/24 09:07:02;;;;;;;34.97;5.97;;;;;;;8.96;100.00;101588.97;5070675;28;20071;-52
2024/01/24 09:09:33;;;;;;;30.55;5.40;;;;;;;8.97;100.00;101603.75;5072969;28;20510;-51
2024/01/24 09:12:02;;;;;;;33.10;5.68;;;;;;;8.95;100.00;101616.13;5074300;28;20488;-50
2024/01/24 09:14:30;;;;;;;30.08;6.65;;;;;;;8.95;100.00;101643.19;5074217;28;20052;-51
2024/01/24 09:16:59;;;;;;;30.52;5.85;;;;;;;9.00;100.00;101653.50;5070797;28;20056;-47
2024/01/24 09:19:27;;;;;;;29.08;5.97;;;;;;;9.02;100.00;101627.19;5071433;28;20104;-46
2024/01/24 09:21:55;;;;;;;35.10;5.63;;;;;;;9.07;100.00;101622.59;5073992;28;20040;-48
2024/01/24 09:24:27;;;;;;;32.97;5.80;;;;;;;9.07;100.00;101636.53;5074459;28;20049;-46
2024/01/24 09:26:56;;;;;;;30.00;6.53;;;;;;;9.12;100.00;101649.44;5074818;28;20056;-47
2024/01/24 09:29:24;;;;;;;29.05;5.85;;;;;;;9.18;100.00;101643.06;5069888;28;20130;-49
2024/01/24 09:31:52;;;;;;;28.48;5.70;;;;;;;9.24;100.00;101648.91;5069140;28;20084;-47
2024/01/24 09:34:21;;;;;;;36.65;6.25;;;;;;;9.30;100.00;101647.75;5072715;28;20040;-46
2024/01/24 09:36:49;;;;;;;30.33;5.43;;;;;;;9.30;100.00;101659.09;5074449;28;20043;-47
2024/01/24 09:39:18;;;;;;;28.98;5.22;;;;;;;9.30;100.00;101674.84;5074292;28;20044;-47
2024/01/24 09:41:51;;;;;;;31.88;5.82;;;;;;;9.36;100.00;101681.56;5074630;28;20044;-48
2024/01/24 09:44:21;;;;;;;26.13;5.05;;;;;;;9.37;100.00;101691.16;5074564;28;20094;-45
2024/01/24 09:46:52;;;;;;;29.58;5.72;;;;;;;9.43;100.00;101685.59;5074285;28;20051;-45
2024/01/24 09:49:20;;;;;;;33.83;5.93;;;;;;;9.49;100.00;101681.88;5074544;28;20426;-47
2024/01/24 09:51:51;;;;;;;33.58;6.47;;;;;;;9.52;100.00;101676.47;5072502;28;20479;-47
2024/01/24 09:54:20;;;;;;;28.15;4.80;;;;;;;9.57;100.00;101690.22;5070938;28;20480;-48
2024/01/24 09:56:49;;;;;;;27.70;5.93;;;;;;;9.65;100.00;101702.97;5074235;28;20539;-45
2024/01/24 09:59:17;;;;;;;33.10;6.38;;;;;;;9.70;100.00;101693.13;5074049;28;20040;-46
2024/01/24 10:01:49;;;;;;;29.30;5.45;;;;;;;9.71;100.00;101697.44;5071812;28;20056;-47
2024/01/24 10:04:18;;;;;;;33.60;6.37;;;;;;;9.77;100.00;101704.19;5070544;28;20060;-46
2024/01/24 10:06:47;;;;;;;29.80;5.70;;;;;;;9.80;100.00;101701.41;5073805;28;20047;-45
2024/01/24 10:09:16;;;;;;;28.88;5.20;;;;;;;9.84;100.00;101708.19;5074160;28;20037;-45
2024/01/24 10:11:44;;;;;;;23.38;4.78;;;;;;;9.88;100.00;101706.28;5073960;28;20044;-48
2024/01/24 10:14:12;;;;;;;27.70;4.95;;;;;;;9.94;100.00;101704.22;5073999;28;20048;-47
2024/01/24 10:16:42;;;;;;;33.72;6.53;;;;;;;9.99;100.00;101722.38;5074042;28;20131;-46
2024/01/24 10:19:11;;;;;;;31.00;6.03;;;;;;;9.98;100.00;101703.13;5073191;28;20052;-46
2024/01/24 10:21:42;;;;;;;30.08;5.90;;;;;;;10.10;100.00;101722.72;5072655;28;20127;-47
2024/01/24 10:24:11;;;;;;;27.88;5.25;;;;;;;10.17;100.00;101725.03;5069933;28;20338;-46
2024/01/24 10:26:39;;;;;;;31.48;6.38;;;;;;;10.21;100.00;101766.00;5071503;28;20498;-46
2024/01/24 10:29:08;;;;;;;35.47;6.63;;;;;;;10.24;100.00;101734.31;5073377;28;20044;-45
2024/01/24 10:31:36;;;;;;;29.77;6.25;;;;;;;10.29;100.00;101748.09;5073501;28;20491;-47
2024/01/24 10:34:04;;;;;;;33.15;6.15;;;;;;;10.29;100.00;101754.22;5073091;28;20049;-46
2024/01/24 10:36:35;;;;;;;30.63;6.60;;;;;;;10.31;100.00;101752.34;5073429;28;20056;-47
2024/01/24 10:39:10;;;;;;;37.50;5.93;;;;;;;10.34;100.00;101755.75;5073063;28;20457;-49
2024/01/24 10:41:44;;;;;;;34.45;6.10;;;;;;;10.35;100.00;101753.09;5068300;28;20045;-48
2024/01/24 10:44:17;;;;;;;31.02;5.55;;;;;;;10.29;100.00;101748.97;5068763;28;20048;-51
2024/01/24 10:46:47;;;;;;;32.30;5.63;;;;;;;10.25;100.00;101751.78;5072410;28;20420;-51
2024/01/24 10:49:15;;;;;;;33.30;5.78;;;;;;;10.26;100.00;101759.59;5069626;28;20049;-49
2024/01/24 10:51:47;;;;;;;34.70;6.47;;;;;;;10.25;100.00;101760.56;5072149;28;20040;-46
2024/01/24 10:54:17;;;;;;;33.40;6.35;;;;;;;10.29;100.00;101759.47;5073223;28;20557;-47
2024/01/24 10:56:48;;;;;;;29.23;5.63;;;;;;;10.26;100.00;101783.25;5071754;28;20456;-48
2024/01/24 10:59:18;;;;;;;24.33;5.10;;;;;;;10.22;100.00;101770.34;5069104;28;20657;-51
2024/01/24 11:01:47;;;;;;;26.10;5.72;;;;;;;10.24;100.00;101793.00;5070458;28;20053;-50
2024/01/24 11:04:21;;;;;;;21.23;5.05;;;;;;;10.20;100.00;101801.09;5072753;28;20041;-47
2024/01/24 11:06:58;;;;;;;26.75;4.70;;;;;;;10.19;100.00;101799.44;5070394;28;20098;-45
2024/01/24 11:09:31;;;;;;;34.15;6.00;;;;;;;10.22;100.00;101801.91;5069752;28;20044;-50
2024/01/24 11:12:00;;;;;;;34.80;6.18;;;;;;;10.22;100.00;101810.63;5067819;28;20461;-47
2024/01/24 11:14:33;;;;;;;27.80;6.20;;;;;;;10.23;100.00;101807.06;5069465;28;20051;-46
2024/01/24 11:17:01;;;;;;;28.27;5.47;;;;;;;10.24;100.00;101811.41;5070213;28;20055;-48
2024/01/24 11:19:30;;;;;;;26.40;5.47;;;;;;;10.26;100.00;101801.66;5069290;28;20054;-49
2024/01/24 11:22:09;;;;;;;35.25;5.95;;;;;;;10.26;100.00;101817.44;5072608;28;20052;-47
2024/01/24 11:24:52;;;;;;;26.67;5.40;;;;;;;10.27;100.00;101824.41;5072624;28;20049;-47